Time;durP1;ratioP1;P1;durP2;ratioP2;P2;SDS_P1;SDS_P2;PMS_P1;PMS_P2;Temp;Humidity;BMP_temperature;BMP_pressure;BME280_temperature;BME280_humidity;BME280_pressure;Samples;Min_cycle;Max_cycle;Signal;HPM_P1;HPM_P2
2023/06/23 00:01:16;;;;;;;49.45;4.85;;;;;;;-142.57;37.99;115900.28;4996051;28;20073;-78
2023/06/23 00:03:43;;;;;;;30.20;4.20;;;;;;;-142.57;38.41;115900.28;4995807;28;20065;-78
2023/06/23 00:06:09;;;;;;;20.20;4.15;;;;;;;-142.57;38.30;115900.28;4996078;28;20042;-78
2023/06/23 00:08:35;;;;;;;15.93;3.67;;;;;;;-142.57;38.64;115900.28;4996496;28;20376;-78
2023/06/23 00:11:01;;;;;;;23.27;3.88;;;;;;;-142.57;38.65;115900.28;4995991;28;20049;-79
2023/06/23 00:13:26;;;;;;;18.08;3.85;;;;;;;-142.57;39.17;115900.28;4995989;28;20117;-78
2023/06/23 00:15:53;;;;;;;19.63;4.10;;;;;;;-142.57;39.54;115900.28;4996316;28;20448;-78
2023/06/23 00:18:20;;;;;;;20.25;4.35;;;;;;;-142.57;39.64;115900.28;4995772;28;20069;-83
2023/06/23 00:20:46;;;;;;;27.55;4.00;;;;;;;-142.57;40.17;115900.28;4995889;28;20113;-78
2023/06/23 00:23:12;;;;;;;18.15;3.58;;;;;;;-142.57;39.95;115900.28;4996208;28;20042;-79
2023/06/23 00:25:38;;;;;;;17.55;3.83;;;;;;;-142.57;40.14;115900.28;4995848;28;20046;-78
2023/06/23 00:28:03;;;;;;;15.27;3.95;;;;;;;-142.57;40.23;115900.28;4995880;28;20396;-82
2023/06/23 00:30:29;;;;;;;14.68;4.07;;;;;;;-142.57;41.08;115900.28;4994038;28;20129;-78
2023/06/23 00:32:54;;;;;;;20.77;4.22;;;;;;;-142.57;41.00;115900.28;4995396;28;20033;-86
2023/06/23 00:35:22;;;;;;;22.25;4.13;;;;;;;-142.57;41.18;115900.28;4993865;28;20403;-86
2023/06/23 00:37:47;;;;;;;22.15;5.28;;;;;;;-142.57;41.75;115900.28;4994801;28;20030;-85
2023/06/23 00:40:15;;;;;;;16.27;3.80;;;;;;;-142.57;42.09;115900.28;4993385;28;20030;-82
2023/06/23 00:42:52;;;;;;;14.55;4.50;;;;;;;-142.57;42.25;115900.28;4994836;28;20353;-78
2023/06/23 00:45:19;;;;;;;19.77;4.60;;;;;;;-142.57;42.61;115900.28;4994141;28;20030;-82
2023/06/23 00:47:45;;;;;;;22.88;4.70;;;;;;;-142.57;42.67;115900.28;4993328;28;20065;-80
2023/06/23 00:50:16;;;;;;;17.25;3.92;;;;;;;-142.57;43.05;115900.28;4994832;28;20026;-79
2023/06/23 00:52:50;;;;;;;14.33;3.97;;;;;;;-142.57;42.82;115900.28;4996519;28;20369;-78
2023/06/23 00:55:20;;;;;;;18.98;4.35;;;;;;;-142.57;42.53;115900.28;4996541;28;20042;-78
2023/06/23 00:57:50;;;;;;;20.50;5.00;;;;;;;-142.57;43.07;115900.28;4994670;28;20038;-79
2023/06/23 01:00:18;;;;;;;17.85;3.95;;;;;;;-142.57;43.76;115900.28;4993663;28;20022;-78
2023/06/23 01:02:49;;;;;;;13.20;3.83;;;;;;;-142.57;44.17;115900.28;4993273;28;20089;-78
2023/06/23 01:05:16;;;;;;;18.00;3.75;;;;;;;-142.57;44.46;115900.28;4994307;28;20042;-77
2023/06/23 01:07:58;;;;;;;14.18;4.43;;;;;;;-142.57;44.37;115900.28;4993098;28;20069;-88
2023/06/23 01:10:28;;;;;;;15.52;4.07;;;;;;;-142.57;44.56;115900.28;4992750;28;20093;-80
2023/06/23 01:13:06;;;;;;;23.35;5.18;;;;;;;-142.57;44.80;115900.28;4994296;28;20036;-78
2023/06/23 01:15:34;;;;;;;21.33;4.03;;;;;;;-142.57;44.37;115900.28;4994162;28;20061;-82
2023/06/23 01:18:21;;;;;;;16.98;4.25;;;;;;;-142.57;44.56;115900.28;4992158;28;20129;-78
2023/06/23 01:20:52;;;;;;;22.30;4.45;;;;;;;-142.57;44.84;115900.28;4992290;28;20431;-85
2023/06/23 01:23:20;;;;;;;23.42;4.38;;;;;;;-142.57;45.20;115900.28;4993508;28;20479;-78
2023/06/23 01:26:11;;;;;;;25.58;4.45;;;;;;;-142.57;45.67;115900.28;4993416;28;20034;-78
2023/06/23 01:28:51;;;;;;;14.05;4.18;;;;;;;-142.57;45.69;115900.28;4993539;28;20089;-79
2023/06/23 01:31:31;;;;;;;20.58;4.10;;;;;;;-142.57;46.11;115900.28;4993654;28;20045;-78
2023/06/23 01:34:06;;;;;;;12.88;4.35;;;;;;;-142.57;46.44;115900.28;4992202;28;20376;-77
2023/06/23 01:36:35;;;;;;;18.65;4.07;;;;;;;-142.57;46.46;115900.28;4993187;28;20049;-78
2023/06/23 01:39:06;;;;;;;18.58;4.97;;;;;;;-142.57;46.47;115900.28;4994167;28;20212;-88
2023/06/23 01:41:40;;;;;;;21.70;4.90;;;;;;;-142.57;46.78;115900.28;4994050;28;20069;-78
2023/06/23 01:44:13;;;;;;;13.80;3.78;;;;;;;-142.57;46.84;115900.28;5013568;28;20364;-79
2023/06/23 01:46:43;;;;;;;23.85;4.25;;;;;;;-142.57;47.23;115900.28;5011706;28;20073;-78
2023/06/23 01:49:14;;;;;;;19.70;4.47;;;;;;;-142.57;47.09;115900.28;5013317;28;20034;-88
2023/06/23 01:51:44;;;;;;;14.15;4.18;;;;;;;-142.57;47.16;115900.28;5013140;28;20044;-78
2023/06/23 01:54:12;;;;;;;18.63;4.43;;;;;;;-142.57;47.40;115900.28;5012002;28;20081;-78
2023/06/23 01:56:40;;;;;;;20.92;4.18;;;;;;;-142.57;47.59;115900.28;4995614;28;20072;-80
2023/06/23 01:59:09;;;;;;;16.40;4.60;;;;;;;-142.57;47.55;115900.28;5012031;28;20030;-78
2023/06/23 02:01:37;;;;;;;17.85;4.22;;;;;;;-142.57;47.75;115900.28;5011815;28;20034;-78
2023/06/23 02:04:04;;;;;;;16.23;4.40;;;;;;;-142.57;47.44;115900.28;5012175;28;20034;-80
2023/06/23 02:06:34;;;;;;;16.58;4.35;;;;;;;-142.57;47.31;115900.28;5011904;28;20042;-79
2023/06/23 02:09:01;;;;;;;18.92;4.45;;;;;;;-142.57;47.43;115900.28;5013615;28;20033;-78
2023/06/23 02:11:27;;;;;;;16.23;4.68;;;;;;;-142.57;47.54;115900.28;5012934;28;20092;-83
2023/06/23 02:13:55;;;;;;;23.40;4.70;;;;;;;-142.57;48.23;115900.28;5011603;28;20036;-88
2023/06/23 02:16:23;;;;;;;27.27;5.60;;;;;;;-142.57;48.49;115900.28;5012902;28;20159;-92
2023/06/23 02:18:54;;;;;;;23.73;5.43;;;;;;;-142.57;49.31;115900.28;5012376;28;20033;-82
2023/06/23 02:21:23;;;;;;;15.88;3.88;;;;;;;-142.57;49.48;115900.28;5013419;28;20442;-78
2023/06/23 02:23:53;;;;;;;19.58;4.20;;;;;;;-142.57;49.80;115900.28;5016818;28;20058;-78
2023/06/23 02:26:25;;;;;;;15.52;4.65;;;;;;;-142.57;50.07;115900.28;5016534;28;20072;-82
2023/06/23 02:28:51;;;;;;;32.22;5.05;;;;;;;-142.57;50.22;115900.28;5016989;28;20426;-78
2023/06/23 02:31:20;;;;;;;23.02;4.85;;;;;;;-142.57;50.52;115900.28;5016395;28;20022;-78
2023/06/23 02:33:46;;;;;;;15.25;4.50;;;;;;;-142.57;51.13;115900.28;5016259;28;20037;-80
2023/06/23 02:36:16;;;;;;;23.10;4.20;;;;;;;-142.57;51.54;115900.28;5016026;28;20099;-79
2023/06/23 02:38:43;;;;;;;17.23;4.82;;;;;;;-142.57;51.69;115900.28;5016397;28;20030;-88
2023/06/23 02:41:12;;;;;;;14.95;4.45;;;;;;;-142.57;51.63;115900.28;5016327;28;20025;-80
2023/06/23 02:43:55;;;;;;;15.32;4.88;;;;;;;-142.57;51.83;115900.28;5016409;28;20038;-77
2023/06/23 02:46:24;;;;;;;26.30;5.72;;;;;;;-142.57;51.74;115900.28;5014991;28;20053;-89
2023/06/23 02:48:52;;;;;;;22.75;4.90;;;;;;;-142.57;51.74;115900.28;5015974;28;20030;-79
2023/06/23 02:51:23;;;;;;;19.02;5.00;;;;;;;-142.57;52.03;115900.28;5016126;28;20034;-79
2023/06/23 02:54:00;;;;;;;20.80;4.72;;;;;;;-142.57;51.97;115900.28;5015972;28;20546;-86
2023/06/23 02:56:28;;;;;;;20.33;5.30;;;;;;;-142.57;51.93;115900.28;5014285;28;20078;-84
2023/06/23 02:59:01;;;;;;;19.88;5.25;;;;;;;-142.57;52.01;115900.28;5014658;28;20109;-78
2023/06/23 03:01:29;;;;;;;18.38;5.50;;;;;;;-142.57;52.10;115900.28;5016035;28;20056;-78
2023/06/23 03:03:55;;;;;;;22.98;5.20;;;;;;;-142.57;52.51;115900.28;5015683;28;20038;-78
2023/06/23 03:06:22;;;;;;;27.25;5.03;;;;;;;-142.57;52.74;115900.28;5015708;28;20025;-78
2023/06/23 03:08:48;;;;;;;20.27;4.95;;;;;;;-142.57;52.88;115900.28;5015699;28;20038;-78
2023/06/23 03:11:20;;;;;;;24.00;5.07;;;;;;;-142.57;52.96;115900.28;5014340;28;20091;-77
2023/06/23 03:13:47;;;;;;;26.58;5.53;;;;;;;-142.57;53.55;115900.28;5015518;28;20109;-79
2023/06/23 03:16:22;;;;;;;16.75;4.68;;;;;;;-142.57;53.38;115900.28;5015495;28;20044;-79
2023/06/23 03:18:58;;;;;;;17.38;5.00;;;;;;;-142.57;53.17;115900.28;5015941;28;20026;-78
2023/06/23 03:21:24;;;;;;;19.30;5.05;;;;;;;-142.57;53.21;115900.28;5015461;28;20037;-79
2023/06/23 03:23:53;;;;;;;13.75;5.07;;;;;;;-142.57;53.15;115900.28;5015591;28;20383;-78
2023/06/23 03:26:21;;;;;;;13.35;5.18;;;;;;;-142.57;53.97;115900.28;5013964;28;20069;-80
2023/06/23 03:28:49;;;;;;;18.63;6.00;;;;;;;-142.57;54.61;115900.28;5014164;28;20455;-79
2023/06/23 03:31:16;;;;;;;15.30;4.85;;;;;;;-142.57;55.49;115900.28;5014831;28;20026;-81
2023/06/23 03:33:43;;;;;;;16.15;5.80;;;;;;;-142.57;55.58;115900.28;5013777;28;20061;-78
2023/06/23 03:36:16;;;;;;;23.77;5.68;;;;;;;-142.57;55.32;115900.28;5015276;28;20042;-76
2023/06/23 03:39:02;;;;;;;24.83;5.38;;;;;;;-142.57;55.33;115900.28;5015283;28;20041;-77
2023/06/23 03:41:29;;;;;;;16.92;5.53;;;;;;;-142.57;55.15;115900.28;5015139;28;20364;-79
2023/06/23 03:43:59;;;;;;;21.30;5.32;;;;;;;-142.57;55.53;115900.28;5015123;28;20068;-78
2023/06/23 03:46:31;;;;;;;17.10;5.05;;;;;;;-142.57;55.62;115900.28;5015181;28;20033;-79
2023/06/23 03:49:00;;;;;;;14.60;4.85;;;;;;;-142.57;56.48;115900.28;5015232;28;20034;-78
2023/06/23 03:51:29;;;;;;;26.45;5.32;;;;;;;-142.57;56.90;115900.28;5014861;28;20030;-77
2023/06/23 03:53:57;;;;;;;22.33;5.20;;;;;;;-142.57;57.38;115900.28;5015154;28;20116;-78
2023/06/23 03:56:23;;;;;;;19.98;5.72;;;;;;;-142.57;56.79;115900.28;5014788;28;20133;-78
2023/06/23 03:58:50;;;;;;;19.63;5.43;;;;;;;-142.57;58.18;115900.28;5014658;28;20124;-78
2023/06/23 04:01:17;;;;;;;23.65;5.68;;;;;;;-142.57;57.99;115900.28;5014547;28;20061;-79
2023/06/23 04:03:44;;;;;;;22.80;5.38;;;;;;;-142.57;57.49;115900.28;5013355;28;20025;-78
2023/06/23 04:06:13;;;;;;;15.40;4.72;;;;;;;-142.57;58.37;115900.28;5014387;28;20038;-79
2023/06/23 04:08:40;;;;;;;20.50;5.43;;;;;;;-142.57;58.79;115900.28;5014241;28;20033;-77
2023/06/23 04:11:09;;;;;;;21.15;5.40;;;;;;;-142.57;59.30;115900.28;5014288;28;20029;-78
2023/06/23 04:13:35;;;;;;;15.93;5.57;;;;;;;-142.57;59.04;115900.28;5014310;28;20030;-79
2023/06/23 04:16:03;;;;;;;19.20;4.78;;;;;;;-142.57;58.19;115900.28;5014272;28;20092;-79
2023/06/23 04:18:30;;;;;;;22.45;5.65;;;;;;;-142.57;59.69;115900.28;5014359;28;20038;-89
2023/06/23 04:20:57;;;;;;;25.58;5.93;;;;;;;-142.57;59.65;115900.28;5014299;28;20029;-77
2023/06/23 04:23:25;;;;;;;24.83;6.05;;;;;;;-142.57;60.56;115900.28;5013097;28;20022;-79
2023/06/23 04:25:51;;;;;;;23.17;5.05;;;;;;;-142.57;60.43;115900.28;5014493;28;20550;-79
2023/06/23 04:28:22;;;;;;;25.23;5.53;;;;;;;-142.57;60.44;115900.28;5013895;28;20418;-77
2023/06/23 04:30:48;;;;;;;19.23;5.50;;;;;;;-142.57;60.22;115900.28;5014283;28;20131;-78
2023/06/23 04:33:14;;;;;;;19.33;5.82;;;;;;;-142.57;61.16;115900.28;5013940;28;20061;-87
2023/06/23 04:35:39;;;;;;;31.33;5.50;;;;;;;-142.57;60.90;115900.28;5013725;28;20112;-78
2023/06/23 04:38:14;;;;;;;19.02;5.10;;;;;;;-142.57;61.32;115900.28;5013759;28;20391;-87
2023/06/23 04:40:51;;;;;;;20.65;5.63;;;;;;;-142.57;60.65;115900.28;5013950;28;20116;-78
2023/06/23 04:43:31;;;;;;;14.93;4.70;;;;;;;-142.57;59.98;115900.28;5014557;28;20053;-79
2023/06/23 04:46:06;;;;;;;19.20;5.47;;;;;;;-142.57;60.61;115900.28;5013142;28;20041;-77
2023/06/23 04:48:35;;;;;;;18.38;5.05;;;;;;;-142.57;61.21;115900.28;5014188;28;20038;-90
2023/06/23 04:51:05;;;;;;;22.90;5.63;;;;;;;-142.57;61.56;115900.28;5014465;28;20026;-78
2023/06/23 04:53:38;;;;;;;17.42;5.15;;;;;;;-142.57;60.99;115900.28;5012665;28;20103;-78
2023/06/23 04:56:06;;;;;;;20.13;4.60;;;;;;;-142.57;59.94;115900.28;4995943;28;20051;-79
2023/06/23 04:58:39;;;;;;;17.05;5.20;;;;;;;-142.57;60.02;115900.28;4994802;28;20090;-77
2023/06/23 05:01:08;;;;;;;28.50;6.07;;;;;;;-142.57;60.32;115900.28;4995244;28;20053;-89
2023/06/23 05:03:36;;;;;;;19.05;5.55;;;;;;;-142.57;60.58;115900.28;4998484;28;20476;-83
2023/06/23 05:06:05;;;;;;;17.70;5.25;;;;;;;-142.57;60.97;115900.28;5001551;28;20038;-82
2023/06/23 05:08:32;;;;;;;22.45;5.35;;;;;;;-142.57;61.17;115900.28;5007568;28;20454;-80
2023/06/23 05:11:05;;;;;;;23.05;5.25;;;;;;;-142.57;62.03;115900.28;5008083;28;20050;-81
2023/06/23 05:13:35;;;;;;;26.45;5.50;;;;;;;-142.57;61.77;115900.28;5002262;28;20093;-78
2023/06/23 05:16:04;;;;;;;23.05;5.28;;;;;;;-142.57;62.10;115900.28;5002239;28;20042;-82
2023/06/23 05:18:33;;;;;;;20.15;5.07;;;;;;;-142.57;62.22;115900.28;4999252;28;20042;-81
2023/06/23 05:21:01;;;;;;;21.52;5.00;;;;;;;-142.57;62.20;115900.28;4997574;28;20092;-88
2023/06/23 05:23:28;;;;;;;19.98;4.65;;;;;;;-142.57;62.78;115900.28;5000619;28;20042;-80
2023/06/23 05:25:58;;;;;;;14.73;5.43;;;;;;;-142.57;63.57;115900.28;4999113;28;20042;-82
2023/06/23 05:28:26;;;;;;;18.95;5.55;;;;;;;-142.57;63.00;115900.28;5000154;28;20038;-79
2023/06/23 05:30:55;;;;;;;16.42;5.15;;;;;;;-142.57;62.53;115900.28;5000552;28;20042;-82
2023/06/23 05:33:24;;;;;;;18.40;5.47;;;;;;;-142.57;62.96;115900.28;5000483;28;20034;-84
2023/06/23 05:35:52;;;;;;;15.68;5.03;;;;;;;-142.57;62.74;115900.28;5000873;28;20089;-78
2023/06/23 05:38:19;;;;;;;25.58;5.95;;;;;;;-142.57;62.43;115900.28;5001976;28;20039;-79
2023/06/23 05:40:45;;;;;;;18.15;5.20;;;;;;;-142.57;62.52;115900.28;5002164;28;20545;-81
2023/06/23 05:43:11;;;;;;;22.90;4.97;;;;;;;-142.57;62.20;115900.28;4998153;28;20044;-82
2023/06/23 05:45:37;;;;;;;25.08;5.22;;;;;;;-142.57;62.39;115900.28;5002834;28;20399;-79
2023/06/23 05:48:14;;;;;;;19.80;5.40;;;;;;;-142.57;61.89;115900.28;4998716;28;20169;-79
2023/06/23 05:50:45;;;;;;;26.48;5.47;;;;;;;-142.57;61.98;115900.28;5000342;28;20126;-79
2023/06/23 05:53:17;;;;;;;19.50;5.30;;;;;;;-142.57;61.17;115900.28;4999579;28;20038;-80
2023/06/23 05:56:01;;;;;;;23.42;5.32;;;;;;;-142.57;60.15;115900.28;5000498;28;20077;-79
2023/06/23 05:58:37;;;;;;;25.17;5.75;;;;;;;-142.57;60.18;115900.28;5004057;28;20465;-78
2023/06/23 06:01:10;;;;;;;22.60;5.38;;;;;;;-142.57;60.51;115900.28;5003120;28;20394;-81
2023/06/23 06:03:39;;;;;;;28.50;5.72;;;;;;;-142.57;60.67;115900.28;5004979;28;20045;-78
2023/06/23 06:06:06;;;;;;;22.83;5.85;;;;;;;-142.57;59.42;115900.28;5006236;28;20038;-78
2023/06/23 06:08:36;;;;;;;17.35;6.00;;;;;;;-142.57;59.73;115900.28;5006385;28;20038;-80
2023/06/23 06:11:04;;;;;;;20.02;6.15;;;;;;;-142.57;58.64;115900.28;5005047;28;20093;-78
2023/06/23 06:13:35;;;;;;;26.00;5.85;;;;;;;-142.57;57.32;115900.28;5002109;28;20038;-80
2023/06/23 06:16:01;;;;;;;14.35;5.30;;;;;;;-142.57;57.30;115900.28;5002184;28;20446;-79
2023/06/23 06:18:35;;;;;;;30.60;5.60;;;;;;;-142.57;55.89;115900.28;5034829;23;20081;-88
2023/06/23 06:21:02;;;;;;;21.75;5.75;;;;;;;-142.57;55.36;115900.28;5046877;28;20037;-78
2023/06/23 06:23:31;;;;;;;29.25;5.07;;;;;;;-142.57;55.62;115900.28;5025988;28;20482;-83
2023/06/23 06:26:00;;;;;;;19.67;5.57;;;;;;;-142.57;54.86;115900.28;5045097;28;20128;-89
2023/06/23 06:28:28;;;;;;;19.38;5.75;;;;;;;-142.57;55.40;115900.28;5039618;28;20026;-83
2023/06/23 06:30:57;;;;;;;27.75;6.07;;;;;;;-142.57;54.15;115900.28;5035588;28;20037;-90
2023/06/23 06:33:24;;;;;;;21.42;5.20;;;;;;;-142.57;52.63;115900.28;5027537;28;20030;-87
2023/06/23 06:35:51;;;;;;;17.25;5.72;;;;;;;-142.57;51.61;115900.28;5019753;28;20041;-87
2023/06/23 06:38:30;;;;;;;22.08;4.80;;;;;;;-142.57;48.02;115900.28;5020150;28;20092;-88
2023/06/23 06:40:57;;;;;;;23.05;5.28;;;;;;;-142.57;48.30;115900.28;5019726;28;20096;-85
2023/06/23 06:43:28;;;;;;;22.85;5.30;;;;;;;-142.57;45.39;115900.28;5011250;28;20081;-88
2023/06/23 06:45:58;;;;;;;28.20;5.70;;;;;;;-142.57;47.10;115900.28;5012689;28;20042;-86
2023/06/23 06:48:26;;;;;;;30.48;5.72;;;;;;;-142.57;45.72;115900.28;5001430;28;20049;-88
2023/06/23 06:50:53;;;;;;;18.13;4.60;;;;;;;-142.57;46.18;115900.28;5009268;28;20022;-87
2023/06/23 06:53:20;;;;;;;20.75;4.68;;;;;;;-142.57;44.28;115900.28;5023737;28;20164;-86
2023/06/23 06:55:46;;;;;;;18.95;4.90;;;;;;;-142.57;45.60;115900.28;5022871;28;20029;-88
2023/06/23 06:58:11;;;;;;;22.80;5.32;;;;;;;-142.57;44.39;115900.28;5007365;28;20041;-84
2023/06/23 07:00:37;;;;;;;20.70;5.40;;;;;;;-142.57;44.29;115900.28;5009615;28;20096;-87
2023/06/23 07:03:04;;;;;;;26.23;4.90;;;;;;;-142.57;45.39;115900.28;5024941;28;20336;-87
2023/06/23 07:05:29;;;;;;;19.92;4.30;;;;;;;-142.57;43.63;115900.28;4992550;28;20026;-86
2023/06/23 07:07:58;;;;;;;16.70;4.60;;;;;;;-142.57;44.54;115900.28;5021365;28;20025;-84
2023/06/23 07:10:23;;;;;;;26.13;5.22;;;;;;;-142.57;42.88;115900.28;5021552;28;20034;-86
2023/06/23 07:12:49;;;;;;;16.17;4.55;;;;;;;-142.57;42.94;115900.28;5020585;28;20056;-86
2023/06/23 07:15:17;;;;;;;22.88;5.43;;;;;;;-142.57;43.35;115900.28;5004177;28;20034;-87
2023/06/23 07:17:43;;;;;;;23.33;4.65;;;;;;;-142.57;41.81;115900.28;5027246;28;20048;-85
2023/06/23 07:20:09;;;;;;;24.35;5.00;;;;;;;-142.57;41.59;115900.28;5019552;28;20080;-79
2023/06/23 07:22:34;;;;;;;20.95;5.20;;;;;;;-142.57;42.37;115900.28;5008997;28;20030;-81
2023/06/23 07:25:01;;;;;;;25.63;5.20;;;;;;;-142.57;40.83;115900.28;5028053;28;20490;-85
2023/06/23 07:27:26;;;;;;;17.33;4.68;;;;;;;-142.57;40.79;115900.28;5028243;28;20033;-81
2023/06/23 07:29:52;;;;;;;16.48;4.47;;;;;;;-142.57;40.46;115900.28;5013866;28;20042;-83
2023/06/23 07:32:19;;;;;;;22.38;5.35;;;;;;;-142.57;40.73;115900.28;5017844;28;20503;-82
2023/06/23 07:34:44;;;;;;;20.02;4.88;;;;;;;-142.57;39.09;115900.28;5028044;28;20048;-81
2023/06/23 07:37:10;;;;;;;27.10;5.20;;;;;;;-142.57;37.79;115900.28;5020592;28;20049;-81
2023/06/23 07:39:37;;;;;;;18.25;5.18;;;;;;;-142.57;37.41;115900.28;5026903;28;20037;-84
2023/06/23 07:42:03;;;;;;;26.35;6.25;;;;;;;-142.57;37.68;115900.28;5018115;28;20497;-81
2023/06/23 07:44:28;;;;;;;30.17;5.50;;;;;;;-142.57;37.01;115900.28;5021056;28;20136;-82
2023/06/23 07:46:54;;;;;;;19.52;4.90;;;;;;;-142.57;38.31;115900.28;5013535;28;20086;-84
2023/06/23 07:49:19;;;;;;;27.20;4.85;;;;;;;-142.57;37.66;115900.28;5010856;28;20041;-87
2023/06/23 07:51:45;;;;;;;20.42;4.53;;;;;;;-142.57;35.46;115900.28;5028004;28;20025;-85
2023/06/23 07:54:10;;;;;;;23.92;5.28;;;;;;;-142.57;37.25;115900.28;4993053;28;20093;-81
2023/06/23 07:56:36;;;;;;;20.42;4.75;;;;;;;-142.57;36.46;115900.28;5021254;28;20033;-88
2023/06/23 07:59:01;;;;;;;24.30;5.22;;;;;;;-142.57;36.03;115900.28;5028553;28;20116;-85
2023/06/23 08:01:27;;;;;;;25.73;4.95;;;;;;;-142.57;36.60;115900.28;5004175;28;20029;-82
2023/06/23 08:03:52;;;;;;;23.02;4.75;;;;;;;-142.57;35.69;115900.28;5027290;28;20029;-79
2023/06/23 08:06:23;;;;;;;27.75;5.70;;;;;;;-142.57;36.65;115900.28;5007669;28;20478;-80
2023/06/23 08:08:51;;;;;;;27.73;5.22;;;;;;;-142.57;37.45;115900.28;5034754;28;20124;-78
2023/06/23 08:11:17;;;;;;;20.42;4.30;;;;;;;-142.57;36.43;115900.28;5035161;28;20033;-86
2023/06/23 08:13:43;;;;;;;27.70;5.80;;;;;;;-142.57;37.62;115900.28;5024813;28;20033;-81
2023/06/23 08:16:10;;;;;;;20.45;5.28;;;;;;;-142.57;35.80;115900.28;5030774;28;20537;-82
2023/06/23 08:18:36;;;;;;;29.02;5.35;;;;;;;-142.57;35.75;115900.28;5025643;28;20033;-79
2023/06/23 08:21:05;;;;;;;24.00;4.63;;;;;;;-142.57;36.03;115900.28;4997582;28;20101;-85
2023/06/23 08:23:30;;;;;;;25.67;5.10;;;;;;;-142.57;36.12;115900.28;5015453;28;20483;-82
2023/06/23 08:25:56;;;;;;;27.52;4.63;;;;;;;-142.57;35.97;115900.28;5029276;28;20033;-86
2023/06/23 08:28:21;;;;;;;15.60;5.07;;;;;;;-142.57;35.94;115900.28;5024963;28;20034;-88
2023/06/23 08:30:47;;;;;;;20.58;4.45;;;;;;;-142.57;34.47;115900.28;5031148;28;20065;-89
2023/06/23 08:33:12;;;;;;;19.00;5.22;;;;;;;-142.57;34.05;115900.28;5040632;28;20117;-87
2023/06/23 08:35:38;;;;;;;19.25;5.28;;;;;;;-142.57;35.03;115900.28;5033670;28;20046;-88
2023/06/23 08:38:05;;;;;;;31.85;4.40;;;;;;;-142.57;35.21;115900.28;5041287;28;20016;-87
2023/06/23 08:40:30;;;;;;;18.95;5.20;;;;;;;-142.57;34.36;115900.28;5040068;28;20124;-88
2023/06/23 08:42:57;;;;;;;18.63;4.78;;;;;;;-142.57;34.12;115900.28;5017025;28;20149;-88
2023/06/23 08:45:23;;;;;;;18.52;4.68;;;;;;;-142.57;34.06;115900.28;5038695;28;20548;-87
2023/06/23 08:47:52;;;;;;;21.35;5.13;;;;;;;-142.57;34.17;115900.28;5023863;28;20061;-85
2023/06/23 08:50:20;;;;;;;24.67;5.22;;;;;;;-142.57;33.76;115900.28;5005982;28;20033;-90
2023/06/23 08:52:46;;;;;;;24.23;4.80;;;;;;;-142.57;33.80;115900.28;5041045;28;20407;-90
2023/06/23 08:55:11;;;;;;;23.33;5.15;;;;;;;-142.57;34.78;115900.28;5021951;28;20030;-86
2023/06/23 08:57:42;;;;;;;23.42;4.90;;;;;;;-142.57;34.17;115900.28;5017990;28;20054;-88
2023/06/23 09:00:08;;;;;;;27.73;5.60;;;;;;;-142.57;33.83;115900.28;5031764;28;20446;-84
2023/06/23 09:02:34;;;;;;;22.25;6.60;;;;;;;-142.57;33.56;115900.28;5035706;28;20031;-85
2023/06/23 09:05:00;;;;;;;17.15;5.00;;;;;;;-142.57;32.78;115900.28;5038593;28;20441;-86
2023/06/23 09:07:26;;;;;;;27.30;5.40;;;;;;;-142.57;32.48;115900.28;5022549;28;20045;-84
2023/06/23 09:09:52;;;;;;;19.05;5.30;;;;;;;-142.57;33.57;115900.28;5038346;28;20041;-89
2023/06/23 09:12:23;;;;;;;17.17;4.80;;;;;;;-142.57;34.23;115900.28;5042603;28;20052;-86
2023/06/23 09:14:50;;;;;;;23.52;4.72;;;;;;;-142.57;34.08;115900.28;5036938;28;20049;-84
2023/06/23 09:17:16;;;;;;;18.05;4.93;;;;;;;-142.57;33.87;115900.28;5040493;28;20091;-89
2023/06/23 09:19:48;;;;;;;20.80;4.68;;;;;;;-142.57;33.67;115900.28;5042413;28;20037;-87
2023/06/23 09:22:17;;;;;;;17.48;4.95;;;;;;;-142.57;32.54;115900.28;5043967;28;20045;-88
2023/06/23 09:24:47;;;;;;;18.83;4.93;;;;;;;-142.57;33.29;115900.28;5027336;28;20056;-87
2023/06/23 09:27:14;;;;;;;20.08;5.00;;;;;;;-142.57;33.91;115900.28;5025067;28;20030;-86
2023/06/23 09:29:40;;;;;;;18.23;4.50;;;;;;;-142.57;33.81;115900.28;5044491;28;20402;-91
2023/06/23 09:32:09;;;;;;;21.50;4.90;;;;;;;-142.57;33.70;115900.28;5044856;28;20034;-88
2023/06/23 09:34:37;;;;;;;19.65;4.85;;;;;;;-142.57;32.60;115900.28;5040469;28;20042;-83
2023/06/23 09:37:14;;;;;;;20.52;4.68;;;;;;;-142.57;33.66;115900.28;5023831;28;20052;-86
2023/06/23 09:39:43;;;;;;;18.92;5.13;;;;;;;-142.57;33.74;115900.28;5020858;28;20041;-85
2023/06/23 09:42:15;;;;;;;19.83;5.60;;;;;;;-142.57;34.01;115900.28;5025017;28;20037;-82
2023/06/23 09:44:48;;;;;;;15.48;5.05;;;;;;;-142.57;33.28;115900.28;5043268;28;20144;-86
2023/06/23 09:47:16;;;;;;;14.73;5.05;;;;;;;-142.57;33.20;115900.28;5035971;28;20045;-88
2023/06/23 09:49:46;;;;;;;22.35;6.22;;;;;;;-142.57;33.15;115900.28;5011172;28;20021;-83
2023/06/23 09:52:26;;;;;;;24.67;5.03;;;;;;;-142.57;33.40;115900.28;5025338;28;20073;-83
2023/06/23 09:54:51;;;;;;;15.65;4.03;;;;;;;-142.57;33.44;115900.28;5023088;28;20046;-81
2023/06/23 09:57:18;;;;;;;30.88;5.15;;;;;;;-142.57;33.53;115900.28;5026889;28;20021;-89
2023/06/23 09:59:51;;;;;;;20.73;4.28;;;;;;;-142.57;33.65;115900.28;5018064;28;20037;-89
2023/06/23 10:02:27;;;;;;;16.50;4.40;;;;;;;-142.57;33.61;115900.28;5000234;28;20097;-86
2023/06/23 10:05:05;;;;;;;16.90;4.45;;;;;;;-142.57;33.96;115900.28;5025233;28;20053;-86
2023/06/23 10:07:34;;;;;;;15.68;4.07;;;;;;;-142.57;34.27;115900.28;5023322;28;20033;-85
2023/06/23 10:10:07;;;;;;;20.83;4.80;;;;;;;-142.57;33.74;115900.28;5017144;28;20026;-85
2023/06/23 10:12:33;;;;;;;12.02;4.45;;;;;;;-142.57;33.21;115900.28;5022901;28;20407;-85
2023/06/23 10:14:59;;;;;;;22.58;4.30;;;;;;;-142.57;32.64;115900.28;5019076;28;20037;-90
2023/06/23 10:17:25;;;;;;;21.10;4.20;;;;;;;-142.57;33.38;115900.28;5019589;28;20049;-88
2023/06/23 10:19:54;;;;;;;17.80;4.03;;;;;;;-142.57;33.25;115900.28;5025121;28;20037;-88
2023/06/23 10:22:26;;;;;;;12.48;4.38;;;;;;;-142.57;33.63;115900.28;5022071;28;20045;-92
2023/06/23 10:24:53;;;;;;;24.15;4.57;;;;;;;-142.57;32.81;115900.28;5014813;28;20052;-86
2023/06/23 10:27:28;;;;;;;13.90;3.78;;;;;;;-142.57;32.75;115900.28;4983581;28;20041;-87
2023/06/23 10:29:56;;;;;;;19.02;4.00;;;;;;;-142.57;32.78;115900.28;5025094;28;20038;-89
2023/06/23 10:32:28;;;;;;;15.35;3.95;;;;;;;-142.57;32.51;115900.28;5006938;28;20063;-89
2023/06/23 10:35:02;;;;;;;11.70;4.10;;;;;;;-142.57;32.55;115900.28;4983593;28;20399;-86
2023/06/23 10:37:28;;;;;;;14.55;4.20;;;;;;;-142.57;32.21;115900.28;5032340;28;20042;-87
2023/06/23 10:43:33;;;;;;;19.95;4.88;;;;;;;-142.57;32.02;115900.28;5074464;22;20050;-87
2023/06/23 10:46:04;;;;;;;15.90;4.57;;;;;;;-142.57;31.21;115900.28;5038236;28;20092;-86
2023/06/23 10:48:30;;;;;;;16.45;4.70;;;;;;;-142.57;31.10;115900.28;5035729;28;20052;-88
2023/06/23 10:51:07;;;;;;;16.17;5.18;;;;;;;-142.57;31.80;115900.28;5046535;28;20033;-85
2023/06/23 10:54:10;;;;;;;17.52;4.95;;;;;;;-142.57;31.79;115900.28;5047986;28;20070;-84
2023/06/23 10:56:42;;;;;;;9.65;4.93;;;;;;;-142.57;32.46;115900.28;5040453;28;20033;-83
2023/06/23 10:59:29;;;;;;;19.67;5.03;;;;;;;-142.57;32.40;115900.28;5041624;28;20036;-83
2023/06/23 11:02:04;;;;;;;18.83;5.00;;;;;;;-142.57;32.65;115900.28;5048441;28;20089;-86
2023/06/23 11:04:51;;;;;;;17.33;4.82;;;;;;;-142.57;33.03;115900.28;5046578;28;20038;-84
2023/06/23 11:07:20;;;;;;;12.65;4.28;;;;;;;-142.57;32.39;115900.28;5043737;28;20037;-84
2023/06/23 11:10:16;;;;;;;10.73;4.18;;;;;;;-142.57;32.40;115900.28;5044362;28;20045;-81
2023/06/23 11:12:49;;;;;;;12.95;4.82;;;;;;;-142.57;32.39;115900.28;5036751;28;20029;-84
2023/06/23 11:15:20;;;;;;;20.73;5.20;;;;;;;-142.57;31.79;115900.28;5047114;28;20137;-86